sensor_id;sensor_type;location;lat;lon;timestamp;pressure;altitude;pressure_sealevel;temperature
30765;BMP180;494;48.744;10.106;2022-07-29T00:00:08;95628.00;;;18.80
30765;BMP180;494;48.744;10.106;2022-07-29T00:02:37;95101.00;;;19.00
30765;BMP180;494;48.744;10.106;2022-07-29T00:05:08;95519.00;;;18.90
30765;BMP180;494;48.744;10.106;2022-07-29T00:07:36;95373.00;;;18.10
30765;BMP180;494;48.744;10.106;2022-07-29T00:10:05;95506.00;;;19.10
30765;BMP180;494;48.744;10.106;2022-07-29T00:12:34;95595.00;;;19.30
30765;BMP180;494;48.744;10.106;2022-07-29T00:15:05;95265.00;;;19.30
30765;BMP180;494;48.744;10.106;2022-07-29T00:17:35;95406.00;;;19.50
30765;BMP180;494;48.744;10.106;2022-07-29T00:20:06;95504.00;;;19.30
30765;BMP180;494;48.744;10.106;2022-07-29T00:22:37;95611.00;;;19.40
30765;BMP180;494;48.744;10.106;2022-07-29T00:25:07;95622.00;;;17.50
30765;BMP180;494;48.744;10.106;2022-07-29T00:27:36;95317.00;;;18.00
30765;BMP180;494;48.744;10.106;2022-07-29T00:30:07;95759.00;;;19.80
30765;BMP180;494;48.744;10.106;2022-07-29T00:32:37;95235.00;;;19.90
30765;BMP180;494;48.744;10.106;2022-07-29T00:35:07;95597.00;;;19.80
30765;BMP180;494;48.744;10.106;2022-07-29T00:37:53;95436.00;;;19.90
30765;BMP180;494;48.744;10.106;2022-07-29T00:40:22;95389.00;;;20.00
30765;BMP180;494;48.744;10.106;2022-07-29T00:42:53;95593.00;;;20.00
30765;BMP180;494;48.744;10.106;2022-07-29T00:45:22;95448.00;;;19.70
30765;BMP180;494;48.744;10.106;2022-07-29T00:47:52;94769.00;;;19.30
30765;BMP180;494;48.744;10.106;2022-07-29T00:50:20;95342.00;;;18.80
30765;BMP180;494;48.744;10.106;2022-07-29T00:52:50;95622.00;;;19.90
30765;BMP180;494;48.744;10.106;2022-07-29T00:55:20;95591.00;;;20.00
30765;BMP180;494;48.744;10.106;2022-07-29T00:57:49;95499.00;;;20.00
30765;BMP180;494;48.744;10.106;2022-07-29T01:00:22;95656.00;;;18.70
30765;BMP180;494;48.744;10.106;2022-07-29T01:02:52;95591.00;;;20.10
30765;BMP180;494;48.744;10.106;2022-07-29T01:05:23;95624.00;;;20.10
30765;BMP180;494;48.744;10.106;2022-07-29T01:08:15;95615.00;;;20.10
30765;BMP180;494;48.744;10.106;2022-07-29T01:10:45;95090.00;;;18.40
30765;BMP180;494;48.744;10.106;2022-07-29T01:13:15;95391.00;;;20.00
30765;BMP180;494;48.744;10.106;2022-07-29T01:15:49;95078.00;;;18.80
30765;BMP180;494;48.744;10.106;2022-07-29T01:18:30;95577.00;;;19.90
30765;BMP180;494;48.744;10.106;2022-07-29T01:21:40;95646.00;;;19.80
30765;BMP180;494;48.744;10.106;2022-07-29T01:24:34;95560.00;;;19.70
30765;BMP180;494;48.744;10.106;2022-07-29T01:27:32;95348.00;;;19.70
30765;BMP180;494;48.744;10.106;2022-07-29T01:30:09;95362.00;;;19.70
30765;BMP180;494;48.744;10.106;2022-07-29T01:32:46;95278.00;;;18.90
30765;BMP180;494;48.744;10.106;2022-07-29T01:35:22;95404.00;;;18.90
30765;BMP180;494;48.744;10.106;2022-07-29T01:37:59;95579.00;;;19.50
30765;BMP180;494;48.744;10.106;2022-07-29T01:40:40;95444.00;;;16.60
30765;BMP180;494;48.744;10.106;2022-07-29T01:43:15;95566.00;;;19.50
30765;BMP180;494;48.744;10.106;2022-07-29T01:45:53;95485.00;;;18.20
30765;BMP180;494;48.744;10.106;2022-07-29T01:48:47;95310.00;;;19.60
30765;BMP180;494;48.744;10.106;2022-07-29T01:51:20;95492.00;;;19.60
30765;BMP180;494;48.744;10.106;2022-07-29T01:53:55;95445.00;;;18.90
30765;BMP180;494;48.744;10.106;2022-07-29T01:56:28;95572.00;;;18.90
30765;BMP180;494;48.744;10.106;2022-07-29T01:59:03;95602.00;;;19.70
30765;BMP180;494;48.744;10.106;2022-07-29T02:01:36;95634.00;;;19.80
30765;BMP180;494;48.744;10.106;2022-07-29T02:04:10;95557.00;;;19.80
30765;BMP180;494;48.744;10.106;2022-07-29T02:07:02;95554.00;;;19.80
30765;BMP180;494;48.744;10.106;2022-07-29T02:09:34;95552.00;;;19.20
30765;BMP180;494;48.744;10.106;2022-07-29T02:12:07;95288.00;;;19.70
30765;BMP180;494;48.744;10.106;2022-07-29T02:14:41;95686.00;;;18.00
30765;BMP180;494;48.744;10.106;2022-07-29T02:17:16;95482.00;;;18.00
30765;BMP180;494;48.744;10.106;2022-07-29T02:19:47;95550.00;;;19.70
30765;BMP180;494;48.744;10.106;2022-07-29T02:22:18;95468.00;;;18.80
30765;BMP180;494;48.744;10.106;2022-07-29T02:24:50;95561.00;;;19.60
30765;BMP180;494;48.744;10.106;2022-07-29T02:27:22;95444.00;;;19.60
30765;BMP180;494;48.744;10.106;2022-07-29T02:29:53;95600.00;;;18.20
30765;BMP180;494;48.744;10.106;2022-07-29T02:32:26;95564.00;;;19.70
30765;BMP180;494;48.744;10.106;2022-07-29T02:34:56;95449.00;;;19.50
30765;BMP180;494;48.744;10.106;2022-07-29T02:37:27;95363.00;;;19.80
30765;BMP180;494;48.744;10.106;2022-07-29T02:39:59;95381.00;;;19.70
30765;BMP180;494;48.744;10.106;2022-07-29T02:42:29;95365.00;;;19.70
30765;BMP180;494;48.744;10.106;2022-07-29T02:44:59;95330.00;;;19.30
30765;BMP180;494;48.744;10.106;2022-07-29T02:47:35;95473.00;;;19.30
30765;BMP180;494;48.744;10.106;2022-07-29T02:50:12;95563.00;;;19.50
30765;BMP180;494;48.744;10.106;2022-07-29T02:52:47;95387.00;;;19.70
30765;BMP180;494;48.744;10.106;2022-07-29T02:55:30;95483.00;;;19.70
30765;BMP180;494;48.744;10.106;2022-07-29T02:58:03;95595.00;;;19.70
30765;BMP180;494;48.744;10.106;2022-07-29T03:00:38;95659.00;;;18.20
30765;BMP180;494;48.744;10.106;2022-07-29T03:03:13;95605.00;;;19.60
30765;BMP180;494;48.744;10.106;2022-07-29T03:05:43;95120.00;;;19.40
30765;BMP180;494;48.744;10.106;2022-07-29T03:08:14;95374.00;;;19.70
30765;BMP180;494;48.744;10.106;2022-07-29T03:10:46;95485.00;;;18.60
30765;BMP180;494;48.744;10.106;2022-07-29T03:13:15;95505.00;;;19.60
30765;BMP180;494;48.744;10.106;2022-07-29T03:15:45;95584.00;;;19.70
30765;BMP180;494;48.744;10.106;2022-07-29T03:18:16;95309.00;;;19.40
30765;BMP180;494;48.744;10.106;2022-07-29T03:20:45;95401.00;;;19.00
30765;BMP180;494;48.744;10.106;2022-07-29T03:23:18;95413.00;;;19.60
30765;BMP180;494;48.744;10.106;2022-07-29T03:25:48;95541.00;;;19.50
30765;BMP180;494;48.744;10.106;2022-07-29T03:28:17;95587.00;;;19.50
30765;BMP180;494;48.744;10.106;2022-07-29T03:30:49;95431.00;;;18.80
30765;BMP180;494;48.744;10.106;2022-07-29T03:33:19;95563.00;;;19.50
30765;BMP180;494;48.744;10.106;2022-07-29T03:35:47;95529.00;;;19.40
30765;BMP180;494;48.744;10.106;2022-07-29T03:38:16;95531.00;;;19.40
30765;BMP180;494;48.744;10.106;2022-07-29T03:40:53;95574.00;;;19.40
30765;BMP180;494;48.744;10.106;2022-07-29T03:43:24;95541.00;;;19.40
30765;BMP180;494;48.744;10.106;2022-07-29T03:45:56;95570.00;;;19.30
30765;BMP180;494;48.744;10.106;2022-07-29T03:48:30;95372.00;;;19.40
30765;BMP180;494;48.744;10.106;2022-07-29T03:51:01;95380.00;;;18.90
30765;BMP180;494;48.744;10.106;2022-07-29T03:53:31;94998.00;;;19.30
30765;BMP180;494;48.744;10.106;2022-07-29T03:56:03;95383.00;;;19.40
30765;BMP180;494;48.744;10.106;2022-07-29T03:58:33;95544.00;;;19.30
30765;BMP180;494;48.744;10.106;2022-07-29T04:01:02;95543.00;;;19.30
30765;BMP180;494;48.744;10.106;2022-07-29T04:03:34;95387.00;;;19.30
30765;BMP180;494;48.744;10.106;2022-07-29T04:06:05;95571.00;;;19.20
30765;BMP180;494;48.744;10.106;2022-07-29T04:08:40;95431.00;;;19.20
30765;BMP180;494;48.744;10.106;2022-07-29T04:11:09;95382.00;;;17.70
30765;BMP180;494;48.744;10.106;2022-07-29T04:13:38;95554.00;;;19.10
30765;BMP180;494;48.744;10.106;2022-07-29T04:16:07;95197.00;;;19.00
30765;BMP180;494;48.744;10.106;2022-07-29T04:18:37;95182.00;;;18.00
30765;BMP180;494;48.744;10.106;2022-07-29T04:21:05;95436.00;;;18.90
30765;BMP180;494;48.744;10.106;2022-07-29T04:23:33;95562.00;;;18.90
30765;BMP180;494;48.744;10.106;2022-07-29T04:26:20;95607.00;;;18.90
30765;BMP180;494;48.744;10.106;2022-07-29T04:28:48;95381.00;;;18.80
30765;BMP180;494;48.744;10.106;2022-07-29T04:31:17;95624.00;;;18.80
30765;BMP180;494;48.744;10.106;2022-07-29T04:33:53;95648.00;;;18.70
30765;BMP180;494;48.744;10.106;2022-07-29T04:36:21;95449.00;;;18.60
30765;BMP180;494;48.744;10.106;2022-07-29T04:38:55;95402.00;;;18.70
30765;BMP180;494;48.744;10.106;2022-07-29T04:41:24;95542.00;;;18.60
30765;BMP180;494;48.744;10.106;2022-07-29T04:43:59;95521.00;;;18.80
30765;BMP180;494;48.744;10.106;2022-07-29T04:46:37;95360.00;;;18.90
30765;BMP180;494;48.744;10.106;2022-07-29T04:49:07;95487.00;;;18.20
30765;BMP180;494;48.744;10.106;2022-07-29T04:51:36;95528.00;;;19.00
30765;BMP180;494;48.744;10.106;2022-07-29T04:54:05;95600.00;;;19.00
30765;BMP180;494;48.744;10.106;2022-07-29T04:56:33;95309.00;;;17.60
30765;BMP180;494;48.744;10.106;2022-07-29T04:59:02;95282.00;;;18.80
30765;BMP180;494;48.744;10.106;2022-07-29T05:01:30;95611.00;;;17.80
30765;BMP180;494;48.744;10.106;2022-07-29T05:03:59;95599.00;;;19.00
30765;BMP180;494;48.744;10.106;2022-07-29T05:06:29;95509.00;;;19.10
30765;BMP180;494;48.744;10.106;2022-07-29T05:08:57;95658.00;;;19.10
30765;BMP180;494;48.744;10.106;2022-07-29T05:11:26;95602.00;;;19.40
30765;BMP180;494;48.744;10.106;2022-07-29T05:13:56;95469.00;;;16.00
30765;BMP180;494;48.744;10.106;2022-07-29T05:16:25;95411.00;;;19.50
30765;BMP180;494;48.744;10.106;2022-07-29T05:18:53;95577.00;;;18.50
30765;BMP180;494;48.744;10.106;2022-07-29T05:21:22;95566.00;;;19.90
30765;BMP180;494;48.744;10.106;2022-07-29T05:23:52;95622.00;;;19.30
30765;BMP180;494;48.744;10.106;2022-07-29T05:26:20;95602.00;;;20.00
30765;BMP180;494;48.744;10.106;2022-07-29T05:28:49;95553.00;;;19.90
30765;BMP180;494;48.744;10.106;2022-07-29T05:31:18;95442.00;;;20.10
30765;BMP180;494;48.744;10.106;2022-07-29T05:33:46;95636.00;;;20.00
30765;BMP180;494;48.744;10.106;2022-07-29T05:36:15;95450.00;;;19.60
30765;BMP180;494;48.744;10.106;2022-07-29T05:38:43;95471.00;;;19.90
30765;BMP180;494;48.744;10.106;2022-07-29T05:41:16;95131.00;;;19.80
30765;BMP180;494;48.744;10.106;2022-07-29T05:43:45;95450.00;;;18.90
30765;BMP180;494;48.744;10.106;2022-07-29T05:46:13;95615.00;;;20.10
30765;BMP180;494;48.744;10.106;2022-07-29T05:48:42;95426.00;;;20.30
30765;BMP180;494;48.744;10.106;2022-07-29T05:51:10;95546.00;;;20.20
30765;BMP180;494;48.744;10.106;2022-07-29T05:53:39;95609.00;;;20.40
30765;BMP180;494;48.744;10.106;2022-07-29T05:56:07;95378.00;;;20.50
30765;BMP180;494;48.744;10.106;2022-07-29T05:58:37;95523.00;;;20.40
30765;BMP180;494;48.744;10.106;2022-07-29T06:01:06;95614.00;;;20.60
30765;BMP180;494;48.744;10.106;2022-07-29T06:03:35;95555.00;;;20.60
30765;BMP180;494;48.744;10.106;2022-07-29T06:06:04;95400.00;;;20.80
30765;BMP180;494;48.744;10.106;2022-07-29T06:08:34;95515.00;;;20.90
30765;BMP180;494;48.744;10.106;2022-07-29T06:11:04;95635.00;;;20.90
30765;BMP180;494;48.744;10.106;2022-07-29T06:13:33;95622.00;;;21.10
30765;BMP180;494;48.744;10.106;2022-07-29T06:16:03;95574.00;;;21.10
30765;BMP180;494;48.744;10.106;2022-07-29T06:18:32;95468.00;;;20.50
30765;BMP180;494;48.744;10.106;2022-07-29T06:21:01;95638.00;;;21.20
30765;BMP180;494;48.744;10.106;2022-07-29T06:23:29;95210.00;;;21.80
30765;BMP180;494;48.744;10.106;2022-07-29T06:25:58;95551.00;;;21.20
30765;BMP180;494;48.744;10.106;2022-07-29T06:28:27;95621.00;;;21.70
30765;BMP180;494;48.744;10.106;2022-07-29T06:30:55;95630.00;;;22.00
30765;BMP180;494;48.744;10.106;2022-07-29T06:33:25;95465.00;;;22.10
30765;BMP180;494;48.744;10.106;2022-07-29T06:35:54;95559.00;;;22.50
30765;BMP180;494;48.744;10.106;2022-07-29T06:38:22;95588.00;;;22.50
30765;BMP180;494;48.744;10.106;2022-07-29T06:41:01;95574.00;;;22.50
30765;BMP180;494;48.744;10.106;2022-07-29T06:43:32;95642.00;;;22.50
30765;BMP180;494;48.744;10.106;2022-07-29T06:46:19;95599.00;;;22.00
30765;BMP180;494;48.744;10.106;2022-07-29T06:48:51;95672.00;;;22.40
30765;BMP180;494;48.744;10.106;2022-07-29T06:51:21;95647.00;;;22.10
30765;BMP180;494;48.744;10.106;2022-07-29T06:53:51;95650.00;;;21.50
30765;BMP180;494;48.744;10.106;2022-07-29T06:56:29;95647.00;;;22.00
30765;BMP180;494;48.744;10.106;2022-07-29T06:59:07;95657.00;;;22.20
30765;BMP180;494;48.744;10.106;2022-07-29T07:01:36;95663.00;;;22.20
30765;BMP180;494;48.744;10.106;2022-07-29T07:04:08;95653.00;;;22.10
30765;BMP180;494;48.744;10.106;2022-07-29T07:06:37;95594.00;;;22.00
30765;BMP180;494;48.744;10.106;2022-07-29T07:09:06;95586.00;;;22.00
30765;BMP180;494;48.744;10.106;2022-07-29T07:11:35;95231.00;;;22.00
30765;BMP180;494;48.744;10.106;2022-07-29T07:14:03;95240.00;;;22.10
30765;BMP180;494;48.744;10.106;2022-07-29T07:16:32;95706.00;;;21.40
30765;BMP180;494;48.744;10.106;2022-07-29T07:19:01;95270.00;;;21.80
30765;BMP180;494;48.744;10.106;2022-07-29T07:21:33;95636.00;;;21.20
30765;BMP180;494;48.744;10.106;2022-07-29T07:24:02;95661.00;;;22.30
30765;BMP180;494;48.744;10.106;2022-07-29T07:26:31;95481.00;;;22.50
30765;BMP180;494;48.744;10.106;2022-07-29T07:28:59;95674.00;;;22.70
30765;BMP180;494;48.744;10.106;2022-07-29T07:31:28;95666.00;;;22.20
30765;BMP180;494;48.744;10.106;2022-07-29T07:33:57;95644.00;;;22.70
30765;BMP180;494;48.744;10.106;2022-07-29T07:36:27;95514.00;;;21.90
30765;BMP180;494;48.744;10.106;2022-07-29T07:38:57;95572.00;;;23.30
30765;BMP180;494;48.744;10.106;2022-07-29T07:41:26;95678.00;;;22.80
30765;BMP180;494;48.744;10.106;2022-07-29T07:43:58;95701.00;;;23.80
30765;BMP180;494;48.744;10.106;2022-07-29T07:46:28;95381.00;;;24.00
30765;BMP180;494;48.744;10.106;2022-07-29T07:48:57;95671.00;;;23.40
30765;BMP180;494;48.744;10.106;2022-07-29T07:51:26;95429.00;;;23.40
30765;BMP180;494;48.744;10.106;2022-07-29T07:53:56;95680.00;;;23.10
30765;BMP180;494;48.744;10.106;2022-07-29T07:56:25;95540.00;;;24.20
30765;BMP180;494;48.744;10.106;2022-07-29T07:59:01;95489.00;;;25.00
30765;BMP180;494;48.744;10.106;2022-07-29T08:01:29;95649.00;;;25.10
30765;BMP180;494;48.744;10.106;2022-07-29T08:04:18;95651.00;;;24.70
30765;BMP180;494;48.744;10.106;2022-07-29T08:06:54;95577.00;;;25.50
30765;BMP180;494;48.744;10.106;2022-07-29T08:09:27;95585.00;;;26.30
30765;BMP180;494;48.744;10.106;2022-07-29T08:11:57;95507.00;;;26.50
30765;BMP180;494;48.744;10.106;2022-07-29T08:14:26;95581.00;;;26.70
30765;BMP180;494;48.744;10.106;2022-07-29T08:16:55;95612.00;;;26.60
30765;BMP180;494;48.744;10.106;2022-07-29T08:19:24;95484.00;;;26.40
30765;BMP180;494;48.744;10.106;2022-07-29T08:21:53;95252.00;;;26.40
30765;BMP180;494;48.744;10.106;2022-07-29T08:24:23;94949.00;;;27.00
30765;BMP180;494;48.744;10.106;2022-07-29T08:27:10;95585.00;;;27.10
30765;BMP180;494;48.744;10.106;2022-07-29T08:29:59;95672.00;;;27.50
30765;BMP180;494;48.744;10.106;2022-07-29T08:32:27;95722.00;;;27.40
30765;BMP180;494;48.744;10.106;2022-07-29T08:35:16;95611.00;;;27.10
30765;BMP180;494;48.744;10.106;2022-07-29T08:37:45;95692.00;;;26.80
30765;BMP180;494;48.744;10.106;2022-07-29T08:40:16;95673.00;;;27.40
30765;BMP180;494;48.744;10.106;2022-07-29T08:42:44;95691.00;;;27.90
30765;BMP180;494;48.744;10.106;2022-07-29T08:45:23;95643.00;;;27.80
30765;BMP180;494;48.744;10.106;2022-07-29T08:47:55;95221.00;;;26.70
30765;BMP180;494;48.744;10.106;2022-07-29T08:50:23;95043.00;;;28.00
30765;BMP180;494;48.744;10.106;2022-07-29T08:52:53;95639.00;;;28.10
30765;BMP180;494;48.744;10.106;2022-07-29T08:55:28;95361.00;;;27.90
30765;BMP180;494;48.744;10.106;2022-07-29T08:57:59;95671.00;;;27.10
30765;BMP180;494;48.744;10.106;2022-07-29T09:00:31;95594.00;;;27.40
30765;BMP180;494;48.744;10.106;2022-07-29T09:03:00;95511.00;;;28.80
30765;BMP180;494;48.744;10.106;2022-07-29T09:05:31;95498.00;;;28.50
30765;BMP180;494;48.744;10.106;2022-07-29T09:08:06;95154.00;;;29.00
30765;BMP180;494;48.744;10.106;2022-07-29T09:10:37;95698.00;;;28.90
30765;BMP180;494;48.744;10.106;2022-07-29T09:13:06;95659.00;;;29.30
30765;BMP180;494;48.744;10.106;2022-07-29T09:15:36;95644.00;;;29.30
30765;BMP180;494;48.744;10.106;2022-07-29T09:18:04;95521.00;;;29.40
30765;BMP180;494;48.744;10.106;2022-07-29T09:20:33;95562.00;;;28.80
30765;BMP180;494;48.744;10.106;2022-07-29T09:23:15;95654.00;;;29.70
30765;BMP180;494;48.744;10.106;2022-07-29T09:25:52;95464.00;;;30.10
30765;BMP180;494;48.744;10.106;2022-07-29T09:28:20;95639.00;;;30.10
30765;BMP180;494;48.744;10.106;2022-07-29T09:30:53;95679.00;;;30.10
30765;BMP180;494;48.744;10.106;2022-07-29T09:33:23;95631.00;;;30.10
30765;BMP180;494;48.744;10.106;2022-07-29T09:36:05;95673.00;;;30.30
30765;BMP180;494;48.744;10.106;2022-07-29T09:38:35;95632.00;;;30.50
30765;BMP180;494;48.744;10.106;2022-07-29T09:41:06;95417.00;;;30.80
30765;BMP180;494;48.744;10.106;2022-07-29T09:43:37;95511.00;;;30.30
30765;BMP180;494;48.744;10.106;2022-07-29T09:46:12;95639.00;;;31.30
30765;BMP180;494;48.744;10.106;2022-07-29T09:48:41;95637.00;;;31.30
30765;BMP180;494;48.744;10.106;2022-07-29T09:51:18;95666.00;;;31.00
30765;BMP180;494;48.744;10.106;2022-07-29T09:53:53;95634.00;;;31.40
30765;BMP180;494;48.744;10.106;2022-07-29T09:56:39;95411.00;;;31.00
30765;BMP180;494;48.744;10.106;2022-07-29T09:59:08;95514.00;;;31.70
30765;BMP180;494;48.744;10.106;2022-07-29T10:01:38;95579.00;;;32.30
30765;BMP180;494;48.744;10.106;2022-07-29T10:04:07;95665.00;;;31.10
30765;BMP180;494;48.744;10.106;2022-07-29T10:06:55;95140.00;;;31.70
30765;BMP180;494;48.744;10.106;2022-07-29T10:09:31;95233.00;;;31.00
30765;BMP180;494;48.744;10.106;2022-07-29T10:12:10;95420.00;;;31.90
30765;BMP180;494;48.744;10.106;2022-07-29T10:14:42;95579.00;;;31.80
30765;BMP180;494;48.744;10.106;2022-07-29T10:17:11;95678.00;;;32.00
30765;BMP180;494;48.744;10.106;2022-07-29T10:19:40;95257.00;;;31.60
30765;BMP180;494;48.744;10.106;2022-07-29T10:22:11;95674.00;;;32.10
30765;BMP180;494;48.744;10.106;2022-07-29T10:24:41;95620.00;;;32.40
30765;BMP180;494;48.744;10.106;2022-07-29T10:27:11;95670.00;;;32.40
30765;BMP180;494;48.744;10.106;2022-07-29T10:29:39;95417.00;;;31.50
30765;BMP180;494;48.744;10.106;2022-07-29T10:32:26;95431.00;;;33.20
30765;BMP180;494;48.744;10.106;2022-07-29T10:41:51;95598.00;;;33.90
30765;BMP180;494;48.744;10.106;2022-07-29T10:44:25;95357.00;;;33.40
30765;BMP180;494;48.744;10.106;2022-07-29T10:46:55;95151.00;;;31.70
30765;BMP180;494;48.744;10.106;2022-07-29T10:49:26;95482.00;;;32.60
30765;BMP180;494;48.744;10.106;2022-07-29T10:52:03;95548.00;;;32.70
30765;BMP180;494;48.744;10.106;2022-07-29T10:54:48;95656.00;;;30.40
30765;BMP180;494;48.744;10.106;2022-07-29T10:57:22;95236.00;;;32.10
30765;BMP180;494;48.744;10.106;2022-07-29T11:00:35;95602.00;;;31.90
30765;BMP180;494;48.744;10.106;2022-07-29T11:03:06;95751.00;;;31.30
30765;BMP180;494;48.744;10.106;2022-07-29T11:05:54;95314.00;;;29.40
30765;BMP180;494;48.744;10.106;2022-07-29T11:08:26;95658.00;;;29.60
30765;BMP180;494;48.744;10.106;2022-07-29T11:11:35;95134.00;;;31.30
30765;BMP180;494;48.744;10.106;2022-07-29T11:14:18;95530.00;;;31.90
30765;BMP180;494;48.744;10.106;2022-07-29T11:17:03;95591.00;;;31.70
30765;BMP180;494;48.744;10.106;2022-07-29T11:20:31;95107.00;;;31.40
30765;BMP180;494;48.744;10.106;2022-07-29T11:23:00;95358.00;;;30.70
30765;BMP180;494;48.744;10.106;2022-07-29T11:25:29;95515.00;;;31.00
30765;BMP180;494;48.744;10.106;2022-07-29T11:28:21;95618.00;;;30.40
30765;BMP180;494;48.744;10.106;2022-07-29T11:30:53;95623.00;;;30.00
30765;BMP180;494;48.744;10.106;2022-07-29T11:33:29;95518.00;;;30.30
30765;BMP180;494;48.744;10.106;2022-07-29T11:36:18;95601.00;;;30.80
30765;BMP180;494;48.744;10.106;2022-07-29T11:39:25;95649.00;;;30.20
30765;BMP180;494;48.744;10.106;2022-07-29T11:42:37;95460.00;;;30.90
30765;BMP180;494;48.744;10.106;2022-07-29T11:45:16;95659.00;;;31.00
30765;BMP180;494;48.744;10.106;2022-07-29T11:48:05;95621.00;;;31.40
30765;BMP180;494;48.744;10.106;2022-07-29T11:50:57;95637.00;;;31.00
30765;BMP180;494;48.744;10.106;2022-07-29T11:53:26;95673.00;;;30.90
30765;BMP180;494;48.744;10.106;2022-07-29T11:56:00;95633.00;;;30.40
30765;BMP180;494;48.744;10.106;2022-07-29T11:58:30;95559.00;;;30.50
30765;BMP180;494;48.744;10.106;2022-07-29T12:01:00;95624.00;;;29.80
30765;BMP180;494;48.744;10.106;2022-07-29T12:03:31;95536.00;;;29.70
30765;BMP180;494;48.744;10.106;2022-07-29T12:06:12;95521.00;;;29.30
30765;BMP180;494;48.744;10.106;2022-07-29T12:08:46;95545.00;;;29.40
30765;BMP180;494;48.744;10.106;2022-07-29T12:11:16;95572.00;;;29.20
30765;BMP180;494;48.744;10.106;2022-07-29T12:13:47;95598.00;;;28.80
30765;BMP180;494;48.744;10.106;2022-07-29T12:16:16;95511.00;;;28.70
30765;BMP180;494;48.744;10.106;2022-07-29T12:19:00;95598.00;;;27.60
30765;BMP180;494;48.744;10.106;2022-07-29T12:21:44;95603.00;;;26.60
30765;BMP180;494;48.744;10.106;2022-07-29T12:24:22;95671.00;;;26.40
30765;BMP180;494;48.744;10.106;2022-07-29T12:26:55;95664.00;;;24.40
30765;BMP180;494;48.744;10.106;2022-07-29T12:29:24;95681.00;;;26.30
30765;BMP180;494;48.744;10.106;2022-07-29T12:32:03;95671.00;;;25.80
30765;BMP180;494;48.744;10.106;2022-07-29T12:34:46;95273.00;;;25.90
30765;BMP180;494;48.744;10.106;2022-07-29T12:37:16;95710.00;;;25.60
30765;BMP180;494;48.744;10.106;2022-07-29T12:39:46;95613.00;;;24.50
30765;BMP180;494;48.744;10.106;2022-07-29T12:42:15;95608.00;;;24.70
30765;BMP180;494;48.744;10.106;2022-07-29T12:44:47;95665.00;;;24.90
30765;BMP180;494;48.744;10.106;2022-07-29T12:47:17;95661.00;;;24.70
30765;BMP180;494;48.744;10.106;2022-07-29T12:49:46;95779.00;;;24.10
30765;BMP180;494;48.744;10.106;2022-07-29T12:52:27;95496.00;;;24.20
30765;BMP180;494;48.744;10.106;2022-07-29T12:54:56;95668.00;;;23.60
30765;BMP180;494;48.744;10.106;2022-07-29T12:57:25;95681.00;;;24.40
30765;BMP180;494;48.744;10.106;2022-07-29T13:00:04;95688.00;;;24.40
30765;BMP180;494;48.744;10.106;2022-07-29T13:02:39;95737.00;;;24.30
30765;BMP180;494;48.744;10.106;2022-07-29T13:05:10;95677.00;;;24.40
30765;BMP180;494;48.744;10.106;2022-07-29T13:07:41;95517.00;;;24.30
30765;BMP180;494;48.744;10.106;2022-07-29T13:10:24;95622.00;;;24.50
30765;BMP180;494;48.744;10.106;2022-07-29T13:13:04;95587.00;;;24.30
30765;BMP180;494;48.744;10.106;2022-07-29T13:15:33;95705.00;;;24.40
30765;BMP180;494;48.744;10.106;2022-07-29T13:18:04;95504.00;;;24.40
30765;BMP180;494;48.744;10.106;2022-07-29T13:20:33;95509.00;;;24.20
30765;BMP180;494;48.744;10.106;2022-07-29T13:23:03;95463.00;;;23.20
30765;BMP180;494;48.744;10.106;2022-07-29T13:25:32;95653.00;;;23.50
30765;BMP180;494;48.744;10.106;2022-07-29T13:28:01;95628.00;;;23.30
30765;BMP180;494;48.744;10.106;2022-07-29T13:30:29;95583.00;;;23.60
30765;BMP180;494;48.744;10.106;2022-07-29T13:32:58;95647.00;;;23.50
30765;BMP180;494;48.744;10.106;2022-07-29T13:35:27;95275.00;;;23.60
30765;BMP180;494;48.744;10.106;2022-07-29T13:37:56;95655.00;;;23.70
30765;BMP180;494;48.744;10.106;2022-07-29T13:40:26;95645.00;;;23.30
30765;BMP180;494;48.744;10.106;2022-07-29T13:42:56;95642.00;;;23.00
30765;BMP180;494;48.744;10.106;2022-07-29T13:45:24;95639.00;;;23.40
